x

Eel River - 17nm Wsw Of Eureka, Ca (46022) Wave Buoy

1:50pm - Mon 22nd May 2017 All times are PDT. -7 hours from GMT.

  • Sig Wave height 5.6ft
  • Swell Direction
  • Peak Period 8s
  • Average Period 6s
  • Wind
    7mph, 9mph gusts
  • Sea Temp 53°f
  • Air Temp 52°f
  • Sea Pressure 1015.2mb
  • Eel River - 17nm Wsw Of Eureka, Ca
  • Eel River - 17nm Wsw Of Eureka, Ca

More Historic Weather Station data

Upgrade to MSW Pro to gain access to the past 30 days of data for over 8000 Wavebouys and Weather Stations around the globe.

Join Pro

Comparision Forecast

View Surf forecast
   
Mon 05/22 1:50pm 5.5ft 8s 6s 7 9 mph 1015.2mb 53f 52f
12:50pm 6ft 7s 6s 11 13 mph 1015.1mb 53f 52f
11:50am 6.5ft 7s 6s 16 18 mph 1015.1mb 53f 52f
10:50am 6ft 7s 6s 16 18 mph 1015.2mb 52f 51f
9:50am 6ft 8s 6s 16 16 mph 1015.3mb 52f 51f
8:50am 5.5ft 8s 6s 13 16 mph 1015.3mb 52f 51f
7:50am 5ft 7s 6s 13 16 mph 1015mb 52f 50f
5:50am 5.5ft 8s 6s 16 18 mph 1014.4mb 52f 51f
4:50am 6ft 8s 6s 13 18 mph 1014.3mb 52f 52f
3:50am 6ft 8s 6s 11 16 mph 1014.4mb 52f 52f
2:50am 6ft 8s 6s 13 13 mph 1014.5mb 52f 53f
1:50am 5.5ft 8s 6s 9 11 mph 1014.9mb 52f 53f
12:50am 5.5ft 8s 6s 9 13 mph 1015.2mb 52f 53f
Sun 05/21 11:50pm 6.5ft 7s 6s 9 9 mph 1015.7mb 52f 54f
10:50pm 6ft 8s 6s 7 7 mph 1016.2mb 52f 53f
9:50pm 6ft 8s 6s 7 9 mph 1015.9mb 52f 53f
8:50pm 6.5ft 8s 6s 9 11 mph 1015.6mb 52f 53f
7:50pm 6ft 8s 6s 11 11 mph 1015.3mb 53f 54f
6:50pm 6ft 8s 6s 9 9 mph 1015.4mb 52f 54f
5:50pm 6ft 8s 6s 7 9 mph 1015.8mb 52f 54f
4:50pm 6ft 8s 6s 9 11 mph 1015.8mb 52f 53f
3:50pm 6.5ft 8s 6s 11 11 mph 1016.2mb 52f 52f
2:50pm 6ft 7s 6s 13 16 mph 1016.5mb 52f 52f
1:50pm 7ft 8s 6s 11 11 mph 1016.3mb 51f 50f
12:50pm 7ft 8s 6s 13 20 mph 1016.2mb 51f 50f
11:50am 8ft 8s 7s 16 20 mph 1016.1mb 51f 50f
10:50am 7.5ft 8s 6s 16 20 mph 1016mb 51f 50f
9:50am 8ft 8s 6s 16 20 mph 1016.1mb 51f 50f
8:50am 7ft 8s 6s 16 18 mph 1016.1mb 51f 50f
7:50am 7.5ft 8s 6s 11 13 mph 1016.2mb 51f 50f
6:50am 8ft 8s 6s 16 18 mph 1016mb 51f 49f
5:50am 9.5ft 8s 7s 18 20 mph 1015.4mb 51f 49f
4:50am 10ft 8s 7s 20 25 mph 1015.3mb 51f 49f
3:50am 9.5ft 8s 7s 18 22 mph 1016mb 51f 52f
2:50am 9ft 8s 7s 20 25 mph 1016.5mb 51f 53f
1:50am 7.5ft 8s 6s 13 18 mph 1017.2mb 51f 53f
12:50am 8.5ft 8s 7s 16 18 mph 1017.9mb 51f 52f
Sat 05/20 11:50pm 8ft 8s 6s 11 16 mph 1018.2mb 51f 52f
10:50pm 8ft 7s 6s 13 18 mph 1018.3mb 51f 52f
9:50pm 7ft 7s 6s 16 18 mph 1018.2mb 51f 52f
8:50pm 7.5ft 8s 6s 13 16 mph 1018.2mb 51f 52f
7:50pm 8ft 8s 6s 16 20 mph 1018.2mb 51f 53f
6:50pm 8ft 8s 6s 16 22 mph 1018.2mb 51f 53f
5:50pm 8ft 8s 6s 11 13 mph 1018.3mb 51f 53f
4:50pm 8.5ft 8s 6s 13 16 mph 1018.4mb 51f 53f
3:50pm 8ft 8s 6s 13 18 mph 1018.7mb 51f 53f
2:50pm 8ft 8s 6s 13 16 mph 1018.9mb 51f 53f
1:50pm 7.5ft 8s 6s 16 20 mph 1019.1mb 51f 53f
12:50pm 7ft 8s 6s 18 22 mph 1019.1mb 51f 53f
11:50am 7.5ft 8s 6s 20 22 mph 1019.2mb 51f 52f
10:50am 8ft 8s 6s 20 25 mph 1019.1mb 51f 52f
9:50am 8ft 8s 6s 22 27 mph 1019.1mb 51f 52f
8:50am 8ft 7s 6s 20 25 mph 1018.9mb 51f 51f
7:50am 8ft 8s 6s 22 27 mph 1018.4mb 51f 51f
6:50am 8ft 8s 6s 18 22 mph 1018.1mb 51f 51f
5:50am 9ft 8s 6s 27 31 mph 1017.3mb 52f 51f
4:50am 9ft 8s 6s 25 29 mph 1017.2mb 52f 51f
3:50am 8ft 8s 6s 25 31 mph 1017.4mb 52f 52f
2:50am 7ft 8s 6s 20 25 mph 1017.8mb 52f 52f
1:50am 7.5ft 8s 6s 18 20 mph 1018.3mb 52f 52f
12:50am 6.5ft 7s 6s 18 22 mph 1018.6mb 52f 53f
Fri 05/19 11:50pm 7ft 7s 6s 16 18 mph 1018.8mb 52f 52f
10:50pm 6.5ft 7s 6s 18 22 mph 1018.8mb 52f 53f
9:50pm 6ft 7s 6s 18 20 mph 1018.8mb 52f 53f
8:50pm 5ft 7s 5s 16 20 mph 1018.5mb 53f 53f
7:50pm 5ft 7s 5s 13 18 mph 1018.2mb 53f 53f
6:50pm 5ft 6s 5s 16 20 mph 1018.3mb 53f 54f
5:50pm 4.5ft 6s 5s 16 18 mph 1018.4mb 53f 54f
4:50pm 4.5ft 6s 5s 13 16 mph 1018.7mb 52f 54f
3:50pm 4.5ft 7s 5s 13 16 mph 1018.6mb 52f 54f
2:50pm 4.5ft 9s 5s 13 16 mph 1019.1mb 53f 54f
1:50pm 4ft 9s 5s 13 16 mph 1019.2mb 53f 54f
12:50pm 3.5ft 8s 5s 16 18 mph 1019mb 53f 54f
11:50am 3.5ft 8s 5s 9 11 mph 1019.3mb 53f 53f
10:50am 3.5ft 9s 5s 11 13 mph 1019.1mb 52f 53f
9:50am 3.5ft 9s 5s 13 18 mph 1019.2mb 52f 53f
8:50am 4ft 9s 5s 13 18 mph 1018.8mb 51f 53f
7:50am 3.5ft 9s 5s 13 16 mph 1018.9mb 51f 53f
6:50am 3.5ft 8s 5s 11 13 mph 1018.6mb 52f 52f
5:50am 3.5ft 9s 5s 13 18 mph 1018.2mb 52f 52f
4:50am 3.5ft 8s 6s 16 18 mph 1018.3mb 52f 52f
3:50am 3.5ft 9s 6s 11 16 mph 1018.5mb 52f 52f
2:50am 4ft 8s 6s 9 9 mph 1018.8mb 52f 52f
1:50am 3.5ft 8s 6s 9 11 mph 1019mb 52f 53f
12:50am 3.5ft 8s 6s 11 13 mph 1019.2mb 52f 53f
Thu 05/18 11:50pm 4ft 9s 6s 11 11 mph 1019.3mb 53f 53f
10:50pm 4.5ft 9s 6s 11 13 mph 1019.5mb 53f 53f
9:50pm 3.5ft 7s 6s 9 11 mph 1019.4mb 53f 53f